Time;durP1;ratioP1;P1;durP2;ratioP2;P2;SDS_P1;SDS_P2;PMS_P1;PMS_P2;Temp;Humidity;BMP_temperature;BMP_pressure;BME280_temperature;BME280_humidity;BME280_pressure;Samples;Min_cycle;Max_cycle;Signal;HPM_P1;HPM_P2
2023/07/07 00:01:04;;;;;;;0.55;0.55;;;13.70;99.90;;;;;;5104566;28;20410;-84
2023/07/07 00:03:31;;;;;;;0.43;0.43;;;13.60;99.90;;;;;;5114450;28;20650;-68
2023/07/07 00:05:59;;;;;;;1.25;0.70;;;13.70;99.90;;;;;;5114694;28;20116;-68
2023/07/07 00:08:28;;;;;;;1.75;1.05;;;13.60;99.90;;;;;;5113416;28;20039;-68
2023/07/07 00:10:59;;;;;;;3.00;1.30;;;13.70;99.90;;;;;;5094205;28;20016;-68
2023/07/07 00:13:28;;;;;;;3.20;1.33;;;13.70;99.90;;;;;;5115176;28;20019;-68
2023/07/07 00:16:07;;;;;;;2.22;1.58;;;13.70;99.90;;;;;;5098754;28;20442;-68
2023/07/07 00:18:36;;;;;;;1.80;1.20;;;13.80;99.90;;;;;;5094065;28;20020;-68
2023/07/07 00:21:04;;;;;;;3.33;1.13;;;13.70;99.90;;;;;;5099327;28;20020;-68
2023/07/07 00:23:32;;;;;;;4.03;1.63;;;13.70;99.90;;;;;;5105214;28;20212;-68
2023/07/07 00:26:01;;;;;;;3.28;1.30;;;13.70;99.90;;;;;;5094853;28;20421;-68
2023/07/07 00:28:29;;;;;;;1.73;1.08;;;13.70;99.90;;;;;;5097781;28;20074;-84
2023/07/07 00:30:57;;;;;;;4.07;1.15;;;13.70;99.90;;;;;;5094239;28;20120;-68
2023/07/07 00:33:26;;;;;;;5.53;1.63;;;13.60;99.90;;;;;;5094434;28;20410;-68
2023/07/07 00:35:54;;;;;;;2.38;1.48;;;13.60;99.90;;;;;;5104200;28;20028;-68
2023/07/07 00:38:20;;;;;;;2.03;1.80;;;13.70;99.90;;;;;;5081087;28;20052;-69
2023/07/07 00:40:53;;;;;;;2.92;1.92;;;13.60;99.90;;;;;;5099182;28;20019;-68
2023/07/07 00:43:20;;;;;;;3.40;1.88;;;13.60;99.90;;;;;;5094333;28;20634;-68
2023/07/07 00:45:46;;;;;;;3.97;1.83;;;13.50;99.90;;;;;;5096226;28;20299;-68
2023/07/07 00:48:20;;;;;;;2.63;1.53;;;13.50;99.90;;;;;;5097187;28;20060;-84
2023/07/07 00:50:53;;;;;;;10.13;1.50;;;13.50;99.90;;;;;;5089689;28;20031;-68
2023/07/07 00:53:20;;;;;;;2.05;1.38;;;13.50;99.90;;;;;;5086713;28;20102;-68
2023/07/07 00:55:51;;;;;;;2.58;1.70;;;13.50;99.90;;;;;;5099291;28;20097;-68
2023/07/07 00:58:23;;;;;;;3.40;1.85;;;13.40;99.90;;;;;;5102431;28;20422;-68
2023/07/07 01:00:59;;;;;;;2.08;1.42;;;13.40;99.90;;;;;;5100434;28;20396;-68
2023/07/07 01:03:32;;;;;;;2.85;1.77;;;13.40;99.90;;;;;;5094297;28;20028;-68
2023/07/07 01:06:02;;;;;;;3.25;1.80;;;13.30;99.90;;;;;;5091334;28;20334;-68
2023/07/07 01:08:28;;;;;;;8.00;2.03;;;13.30;99.90;;;;;;5094798;28;20053;-67
2023/07/07 01:10:57;;;;;;;3.13;1.70;;;13.30;99.90;;;;;;5094507;28;20450;-68
2023/07/07 01:13:25;;;;;;;4.05;2.00;;;13.30;99.90;;;;;;5103864;28;20132;-68
2023/07/07 01:16:15;;;;;;;5.18;2.30;;;13.40;99.90;;;;;;5104878;28;20090;-68
2023/07/07 01:18:59;;;;;;;2.90;1.95;;;13.30;99.90;;;;;;5111066;28;20035;-68
2023/07/07 01:21:41;;;;;;;5.22;2.78;;;13.30;99.90;;;;;;5102615;28;20032;-68
2023/07/07 01:24:15;;;;;;;4.40;2.35;;;13.30;99.90;;;;;;5110082;28;20047;-68
2023/07/07 01:27:18;;;;;;;3.55;2.13;;;13.30;99.90;;;;;;5111293;28;20027;-68
2023/07/07 01:30:16;;;;;;;3.58;2.50;;;13.20;99.90;;;;;;5110021;28;20489;-68
2023/07/07 01:32:50;;;;;;;5.30;2.47;;;13.10;99.90;;;;;;5106083;28;20103;-68
2023/07/07 01:35:20;;;;;;;3.67;2.15;;;13.10;99.90;;;;;;5110939;28;20078;-68
2023/07/07 01:37:57;;;;;;;16.27;2.75;;;13.10;99.90;;;;;;5113739;28;20036;-68
2023/07/07 01:40:33;;;;;;;3.63;2.55;;;13.00;99.90;;;;;;5114083;28;20051;-68
2023/07/07 01:43:05;;;;;;;8.77;3.30;;;13.00;99.90;;;;;;5113785;28;20042;-68
2023/07/07 01:46:05;;;;;;;5.10;2.65;;;13.00;99.90;;;;;;5113965;28;20031;-68
2023/07/07 01:48:41;;;;;;;3.22;2.90;;;12.90;99.90;;;;;;5106067;28;20062;-83
2023/07/07 01:51:10;;;;;;;9.43;3.15;;;12.90;99.90;;;;;;5109622;28;20023;-68
2023/07/07 01:53:38;;;;;;;10.82;3.00;;;12.90;99.90;;;;;;5113245;28;20055;-68
2023/07/07 01:56:05;;;;;;;7.68;3.88;;;12.80;99.90;;;;;;5113624;28;20032;-84
2023/07/07 01:58:32;;;;;;;3.83;3.00;;;12.80;99.90;;;;;;5110425;28;20027;-67
2023/07/07 02:01:00;;;;;;;5.45;3.20;;;12.80;99.90;;;;;;5109975;28;20038;-68
2023/07/07 02:03:27;;;;;;;5.90;3.30;;;12.70;99.90;;;;;;5113429;28;20366;-67
2023/07/07 02:05:53;;;;;;;3.75;2.88;;;12.80;99.90;;;;;;5113876;28;20024;-68
2023/07/07 02:08:18;;;;;;;10.17;3.53;;;12.80;99.90;;;;;;5114672;28;20020;-68
2023/07/07 02:10:44;;;;;;;8.70;4.07;;;12.80;99.90;;;;;;5113884;28;20063;-67
2023/07/07 02:13:10;;;;;;;6.43;4.10;;;12.70;99.90;;;;;;5112361;28;20028;-68
2023/07/07 02:15:36;;;;;;;7.28;3.75;;;12.80;99.90;;;;;;5108468;28;20525;-68
2023/07/07 02:18:02;;;;;;;4.60;3.00;;;12.70;99.90;;;;;;5095608;28;20130;-67
2023/07/07 02:20:28;;;;;;;7.60;3.47;;;12.70;99.90;;;;;;5086953;28;20360;-67
2023/07/07 02:22:53;;;;;;;10.37;4.37;;;12.70;99.90;;;;;;5093961;28;20074;-85
2023/07/07 02:25:19;;;;;;;7.40;4.20;;;12.70;99.90;;;;;;5087995;28;20024;-68
2023/07/07 02:27:45;;;;;;;7.83;3.73;;;12.80;99.90;;;;;;5094327;28;20020;-67
2023/07/07 02:30:11;;;;;;;7.70;3.73;;;12.70;99.90;;;;;;5093917;28;20040;-68
2023/07/07 02:32:37;;;;;;;6.65;4.35;;;12.70;99.90;;;;;;5094455;28;20027;-67
2023/07/07 02:35:06;;;;;;;9.57;4.10;;;12.70;99.90;;;;;;5093934;28;20020;-68
2023/07/07 02:37:31;;;;;;;7.85;3.95;;;12.70;99.90;;;;;;5093922;28;20036;-67
2023/07/07 02:39:57;;;;;;;9.13;4.93;;;12.60;99.90;;;;;;5094121;28;20035;-77
2023/07/07 02:42:23;;;;;;;6.20;4.17;;;12.60;99.90;;;;;;5097130;28;20445;-67
2023/07/07 02:44:49;;;;;;;7.60;4.03;;;12.60;99.90;;;;;;5080317;28;20317;-67
2023/07/07 02:47:15;;;;;;;7.10;4.33;;;12.60;99.90;;;;;;5098407;28;20024;-67
2023/07/07 02:49:40;;;;;;;4.45;4.00;;;12.60;99.90;;;;;;5100770;28;20028;-68
2023/07/07 02:52:07;;;;;;;7.93;4.20;;;12.50;99.90;;;;;;5079890;28;20035;-67
2023/07/07 02:54:33;;;;;;;14.30;4.28;;;12.50;99.90;;;;;;5090275;28;20020;-68
2023/07/07 02:56:59;;;;;;;4.53;3.10;;;12.50;99.90;;;;;;5082357;28;20477;-68
2023/07/07 02:59:25;;;;;;;9.77;3.93;;;12.40;99.90;;;;;;5102078;28;20103;-68
2023/07/07 03:01:51;;;;;;;6.73;3.63;;;12.40;99.90;;;;;;5108908;28;20027;-67
2023/07/07 03:04:16;;;;;;;5.97;3.53;;;12.40;99.90;;;;;;5098304;28;20020;-68
2023/07/07 03:06:42;;;;;;;3.97;3.33;;;12.20;99.90;;;;;;5109731;28;20077;-68
2023/07/07 03:09:09;;;;;;;6.10;3.20;;;12.20;99.90;;;;;;5096349;28;20028;-68
2023/07/07 03:11:34;;;;;;;13.55;3.47;;;12.20;99.90;;;;;;5072421;28;20074;-68
2023/07/07 03:14:00;;;;;;;5.57;3.63;;;12.20;99.90;;;;;;5095493;28;20369;-79
2023/07/07 03:16:32;;;;;;;6.23;4.30;;;12.20;99.90;;;;;;5107754;28;20043;-68
2023/07/07 03:19:08;;;;;;;7.90;3.58;;;12.20;99.90;;;;;;5103420;28;20031;-68
2023/07/07 03:21:33;;;;;;;6.63;4.10;;;12.20;99.90;;;;;;5081226;28;20410;-85
2023/07/07 03:23:59;;;;;;;6.40;4.40;;;12.20;99.90;;;;;;5096765;28;20081;-68
2023/07/07 03:26:27;;;;;;;5.45;3.75;;;12.30;99.90;;;;;;5110695;28;20110;-68
2023/07/07 03:28:53;;;;;;;6.82;4.07;;;12.30;99.90;;;;;;5096913;28;20035;-68
2023/07/07 03:31:25;;;;;;;6.10;3.92;;;12.30;99.90;;;;;;5089566;28;20157;-68
2023/07/07 03:33:54;;;;;;;6.32;3.67;;;12.40;99.90;;;;;;5102316;28;20035;-68
2023/07/07 03:36:23;;;;;;;7.38;3.80;;;12.40;99.90;;;;;;5108169;28;20031;-68
2023/07/07 03:38:48;;;;;;;5.15;3.47;;;12.50;99.90;;;;;;5101012;28;20024;-68
2023/07/07 03:41:18;;;;;;;8.03;4.10;;;12.40;99.90;;;;;;5096648;28;20043;-68
2023/07/07 03:43:46;;;;;;;6.50;3.47;;;12.50;99.90;;;;;;5097282;28;20035;-68
2023/07/07 03:46:13;;;;;;;7.47;3.72;;;12.60;99.90;;;;;;5085681;28;20027;-68
2023/07/07 03:48:39;;;;;;;7.25;3.70;;;12.60;99.90;;;;;;5092347;28;20394;-68
2023/07/07 03:51:05;;;;;;;8.50;3.93;;;12.70;99.90;;;;;;5090291;28;20027;-68
2023/07/07 03:53:32;;;;;;;8.48;4.35;;;12.70;99.90;;;;;;5095665;28;20024;-82
2023/07/07 03:55:58;;;;;;;12.23;3.92;;;12.80;99.90;;;;;;5096845;28;20059;-68
2023/07/07 03:58:25;;;;;;;8.82;4.53;;;12.80;99.90;;;;;;5084683;28;20028;-68
2023/07/07 04:00:51;;;;;;;;;;;12.90;99.90;;;;;;5105604;28;20060;-68
2023/07/07 04:03:17;;;;;;;9.90;4.13;;;12.90;99.90;;;;;;5103217;28;20646;-68
2023/07/07 04:05:48;;;;;;;16.45;3.92;;;13.00;99.90;;;;;;5097975;28;20038;-68
2023/07/07 04:08:22;;;;;;;5.75;3.80;;;13.00;99.90;;;;;;5097113;28;20035;-67
2023/07/07 04:11:05;;;;;;;6.38;4.20;;;13.10;99.90;;;;;;5096714;28;20095;-68
2023/07/07 04:13:32;;;;;;;10.75;3.88;;;13.10;99.90;;;;;;5099156;28;20512;-67
2023/07/07 04:16:10;;;;;;;10.93;3.95;;;13.20;99.90;;;;;;5087713;28;20044;-72
2023/07/07 04:18:37;;;;;;;7.63;3.88;;;13.20;99.90;;;;;;5084653;28;20326;-68
2023/07/07 04:21:06;;;;;;;6.90;4.38;;;13.30;99.90;;;;;;5087196;28;20415;-68
2023/07/07 04:23:33;;;;;;;7.03;4.07;;;13.30;99.90;;;;;;5085524;28;20121;-68
2023/07/07 04:25:59;;;;;;;7.53;3.95;;;13.40;99.90;;;;;;5084191;28;20082;-68
2023/07/07 04:28:25;;;;;;;8.98;3.78;;;13.40;99.90;;;;;;5081386;28;20095;-67
2023/07/07 04:30:52;;;;;;;6.93;3.67;;;13.40;99.90;;;;;;5078203;28;20381;-68
2023/07/07 04:33:19;;;;;;;7.32;3.90;;;13.50;99.90;;;;;;5088888;28;20327;-68
2023/07/07 04:35:44;;;;;;;6.43;4.00;;;13.50;99.90;;;;;;5094387;28;20036;-67
2023/07/07 04:38:10;;;;;;;7.13;3.93;;;13.60;99.90;;;;;;5095578;28;20043;-67
2023/07/07 04:40:36;;;;;;;5.97;3.57;;;13.60;99.90;;;;;;5088874;28;20434;-95
2023/07/07 04:43:01;;;;;;;6.53;4.10;;;13.60;99.90;;;;;;5082010;28;20099;-68
2023/07/07 04:45:27;;;;;;;5.67;3.53;;;13.60;99.90;;;;;;5080178;28;20043;-68
2023/07/07 04:47:53;;;;;;;7.50;3.67;;;13.70;99.90;;;;;;5083274;28;20060;-68
2023/07/07 04:50:18;;;;;;;10.67;4.30;;;13.70;99.90;;;;;;5077575;28;20051;-68
2023/07/07 04:52:44;;;;;;;15.70;3.83;;;13.80;99.90;;;;;;5095330;28;20020;-68
2023/07/07 04:55:10;;;;;;;10.37;4.20;;;13.80;99.90;;;;;;5092083;28;20671;-68
2023/07/07 04:57:35;;;;;;;8.47;3.73;;;13.90;99.90;;;;;;5080153;28;20081;-68
2023/07/07 05:00:05;;;;;;;6.33;3.20;;;14.00;99.90;;;;;;5084231;28;20060;-68
2023/07/07 05:02:33;;;;;;;5.82;3.40;;;14.10;99.90;;;;;;5085863;28;20040;-68
2023/07/07 05:04:59;;;;;;;7.05;3.33;;;14.10;99.90;;;;;;5088307;28;20028;-68
2023/07/07 05:07:28;;;;;;;7.20;3.67;;;14.20;99.90;;;;;;5080836;28;20087;-68
2023/07/07 05:09:54;;;;;;;8.13;3.53;;;14.30;99.90;;;;;;5083709;28;20031;-68
2023/07/07 05:12:24;;;;;;;4.85;2.88;;;14.40;99.90;;;;;;5087225;28;20031;-68
2023/07/07 05:14:52;;;;;;;6.50;3.33;;;14.50;99.90;;;;;;5095529;28;20058;-69
2023/07/07 05:17:18;;;;;;;9.20;3.00;;;14.60;99.90;;;;;;5103937;28;20073;-68
2023/07/07 05:19:43;;;;;;;4.33;2.57;;;14.70;99.90;;;;;;5109491;28;20043;-68
2023/07/07 05:22:09;;;;;;;5.43;2.90;;;14.80;99.90;;;;;;5106675;28;20028;-68
2023/07/07 05:24:35;;;;;;;4.47;2.87;;;14.90;99.90;;;;;;5105271;28;20104;-69
2023/07/07 05:27:01;;;;;;;5.13;3.00;;;15.00;99.90;;;;;;5107647;28;20318;-68
2023/07/07 05:29:27;;;;;;;6.38;2.50;;;15.10;99.90;;;;;;5107631;28;20059;-68
2023/07/07 05:31:52;;;;;;;4.93;2.47;;;15.20;99.90;;;;;;5107585;28;20036;-94
2023/07/07 05:34:19;;;;;;;5.47;3.00;;;15.30;99.90;;;;;;5104831;28;20012;-68
2023/07/07 05:36:45;;;;;;;3.70;3.03;;;15.40;99.90;;;;;;5100708;28;20417;-68
2023/07/07 05:39:11;;;;;;;5.37;2.40;;;15.50;99.90;;;;;;5103313;28;20036;-68
2023/07/07 05:41:36;;;;;;;4.70;2.73;;;15.60;99.90;;;;;;5086801;28;20414;-68
2023/07/07 05:44:02;;;;;;;5.47;2.70;;;15.60;99.90;;;;;;5104520;28;20032;-68
2023/07/07 05:46:28;;;;;;;5.33;2.80;;;15.70;99.90;;;;;;5098756;28;20086;-68
2023/07/07 05:48:53;;;;;;;4.13;2.30;;;15.80;99.90;;;;;;5101861;28;20023;-68
2023/07/07 05:51:19;;;;;;;3.13;2.23;;;15.90;99.90;;;;;;5105464;28;20030;-68
2023/07/07 05:53:45;;;;;;;6.23;3.30;;;15.90;99.90;;;;;;5101043;28;20023;-68
2023/07/07 05:56:23;;;;;;;7.67;2.40;;;16.00;99.90;;;;;;5113300;28;20330;-68
2023/07/07 05:58:50;;;;;;;6.68;1.98;;;16.10;99.90;;;;;;5110902;28;20039;-68
2023/07/07 06:01:16;;;;;;;6.15;2.70;;;16.30;99.90;;;;;;5110763;28;20115;-68
2023/07/07 06:03:43;;;;;;;7.55;2.60;;;16.40;99.90;;;;;;5105567;28;20339;-68
2023/07/07 06:06:09;;;;;;;4.85;2.38;;;16.50;99.90;;;;;;5104006;28;20106;-69
2023/07/07 06:08:34;;;;;;;2.27;2.07;;;16.60;99.90;;;;;;5105308;28;20104;-68
2023/07/07 06:11:00;;;;;;;4.23;2.40;;;16.70;99.90;;;;;;5101683;28;20027;-68
2023/07/07 06:13:28;;;;;;;5.73;2.17;;;16.80;99.90;;;;;;5111243;28;20985;-68
2023/07/07 06:15:54;;;;;;;3.90;1.83;;;16.90;99.90;;;;;;5107807;28;20058;-68
2023/07/07 06:18:20;;;;;;;4.57;2.00;;;17.10;99.90;;;;;;5113806;28;20028;-68
2023/07/07 06:20:48;;;;;;;4.03;1.98;;;17.10;99.90;;;;;;5099729;28;20130;-68
2023/07/07 06:23:14;;;;;;;3.60;1.98;;;17.20;99.90;;;;;;5118020;28;20416;-89
2023/07/07 06:25:39;;;;;;;5.57;1.90;;;17.30;99.90;;;;;;5109838;28;20095;-67
2023/07/07 06:28:05;;;;;;;3.30;1.47;;;17.50;99.90;;;;;;5118703;28;20698;-68
2023/07/07 06:30:31;;;;;;;2.43;1.83;;;17.60;99.90;;;;;;5100379;28;20020;-68
2023/07/07 06:32:58;;;;;;;4.37;2.63;;;17.70;99.90;;;;;;5117445;28;20418;-88
2023/07/07 06:35:25;;;;;;;2.83;1.70;;;17.80;99.90;;;;;;5117801;28;20036;-67
2023/07/07 06:37:51;;;;;;;;;;;17.90;99.90;;;;;;5117498;28;20034;-67
2023/07/07 06:40:16;;;;;;;4.83;2.40;;;18.00;99.90;;;;;;5117988;28;19903;-68
2023/07/07 06:42:42;;;;;;;3.53;1.97;;;18.10;99.90;;;;;;5118859;27;20258;-68
2023/07/07 06:45:08;;;;;;;2.03;1.70;;;18.20;99.90;;;;;;5099477;28;20042;-68
2023/07/07 06:47:34;;;;;;;5.53;1.93;;;18.30;99.90;;;;;;5118615;28;20100;-67
2023/07/07 06:49:59;;;;;;;3.20;1.77;;;18.40;99.90;;;;;;5097540;28;20309;-69
2023/07/07 06:52:25;;;;;;;4.57;1.93;;;18.40;99.90;;;;;;5118528;28;20028;-68
2023/07/07 06:54:52;;;;;;;6.10;1.47;;;18.50;99.90;;;;;;5118341;28;20318;-67
2023/07/07 06:57:18;;;;;;;6.22;1.73;;;18.60;99.90;;;;;;5118300;28;20039;-67
2023/07/07 06:59:44;;;;;;;2.03;1.10;;;18.70;99.90;;;;;;5100449;28;20028;-68
2023/07/07 07:02:13;;;;;;;1.70;1.30;;;18.80;99.90;;;;;;5099654;28;20065;-67
2023/07/07 07:04:39;;;;;;;2.45;1.50;;;18.90;99.90;;;;;;5116647;28;20084;-67
2023/07/07 07:07:05;;;;;;;;;;;19.00;99.90;;;;;;5118295;28;20065;-88
2023/07/07 07:09:31;;;;;;;4.05;2.08;;;19.20;99.90;;;;;;5118657;28;19907;-88
2023/07/07 07:11:58;;;;;;;7.90;1.70;;;19.20;99.90;;;;;;5117955;28;20321;-66
2023/07/07 07:14:23;;;;;;;2.72;1.30;;;19.40;99.90;;;;;;5116375;28;20048;-67
2023/07/07 07:16:49;;;;;;;4.33;1.73;;;19.50;99.90;;;;;;5097858;28;20028;-67
2023/07/07 07:19:15;;;;;;;3.33;1.30;;;19.60;99.90;;;;;;5098230;28;20031;-67
2023/07/07 07:21:41;;;;;;;2.33;1.40;;;19.70;99.90;;;;;;5102798;28;20067;-67
2023/07/07 07:24:07;;;;;;;3.10;1.40;;;19.90;99.90;;;;;;5115844;28;20040;-72
2023/07/07 07:26:32;;;;;;;3.73;1.40;;;20.00;99.90;;;;;;5117671;28;20307;-66
2023/07/07 07:28:58;;;;;;;3.13;1.50;;;20.10;99.90;;;;;;5106975;28;20047;-66
2023/07/07 07:31:24;;;;;;;5.53;1.50;;;20.30;99.90;;;;;;5112702;28;20031;-67
2023/07/07 07:33:52;;;;;;;1.93;1.40;;;20.40;99.90;;;;;;5117782;28;20050;-68
2023/07/07 07:36:19;;;;;;;2.63;1.40;;;20.60;99.90;;;;;;5117566;28;20389;-70
2023/07/07 07:38:44;;;;;;;2.47;1.65;;;20.80;99.90;;;;;;5110399;28;20027;-67
2023/07/07 07:41:10;;;;;;;1.93;1.50;;;20.90;99.90;;;;;;5109509;28;20031;-67
2023/07/07 07:43:36;;;;;;;2.97;1.23;;;21.10;99.90;;;;;;5117154;28;20024;-67
2023/07/07 07:46:01;;;;;;;1.67;1.07;;;21.20;99.90;;;;;;5107435;28;20374;-67
2023/07/07 07:48:27;;;;;;;2.30;1.30;;;21.30;99.90;;;;;;5112672;28;20107;-66
2023/07/07 07:50:52;;;;;;;2.63;1.30;;;21.50;99.90;;;;;;5117466;28;20019;-85
2023/07/07 07:53:19;;;;;;;1.43;1.23;;;21.60;99.90;;;;;;5116989;28;20039;-65
2023/07/07 07:55:45;;;;;;;2.65;1.45;;;21.80;99.90;;;;;;5116532;28;20023;-65
2023/07/07 07:58:11;;;;;;;3.55;1.45;;;21.90;99.90;;;;;;5117128;28;20035;-65
2023/07/07 08:00:37;;;;;;;;;;;22.00;99.90;;;;;;5103053;28;20098;-84
2023/07/07 08:03:03;;;;;;;5.55;1.23;;;22.20;99.90;;;;;;5117453;28;19938;-66
2023/07/07 08:05:28;;;;;;;3.13;1.00;;;22.40;99.90;;;;;;5116296;28;20039;-66
2023/07/07 08:07:54;;;;;;;2.67;1.30;;;22.50;99.90;;;;;;5117176;28;20020;-66
2023/07/07 08:10:20;;;;;;;2.40;1.27;;;22.70;99.90;;;;;;5115904;28;20023;-66
2023/07/07 08:12:45;;;;;;;4.17;1.50;;;22.80;99.90;;;;;;5116349;28;20042;-66
2023/07/07 08:15:12;;;;;;;4.60;1.30;;;23.00;99.90;;;;;;5106190;28;20434;-65
2023/07/07 08:17:37;;;;;;;;;;;23.10;99.90;;;;;;5096369;28;20081;-77
2023/07/07 08:20:05;;;;;;;10.23;1.65;;;23.30;99.90;;;;;;5083979;28;20237;-67
2023/07/07 08:22:31;;;;;;;2.92;1.00;;;23.50;99.90;;;;;;5096170;28;20039;-66
2023/07/07 08:24:58;;;;;;;4.20;2.03;;;23.60;99.90;;;;;;5088233;28;20027;-66
2023/07/07 08:27:25;;;;;;;2.42;1.13;;;23.70;99.90;;;;;;5096311;28;20081;-66
2023/07/07 08:29:53;;;;;;;2.47;1.17;;;23.80;99.90;;;;;;5095530;28;20024;-66
2023/07/07 08:32:22;;;;;;;3.42;1.30;;;24.00;99.90;;;;;;5096527;28;20073;-67
2023/07/07 08:34:53;;;;;;;4.22;1.35;;;24.10;99.90;;;;;;5082443;28;20051;-65
2023/07/07 08:37:20;;;;;;;2.63;1.45;;;24.20;99.90;;;;;;5087800;28;20028;-67
2023/07/07 08:39:46;;;;;;;4.32;1.45;;;24.20;99.90;;;;;;5088977;28;20027;-67
2023/07/07 08:42:15;;;;;;;;;;;24.30;99.90;;;;;;5096548;28;20498;-68
2023/07/07 08:44:41;;;;;;;3.33;1.42;;;24.50;99.90;;;;;;5096028;28;19953;-66
2023/07/07 08:47:31;;;;;;;4.18;1.50;;;24.60;99.90;;;;;;5095375;28;20028;-67
2023/07/07 08:50:05;;;;;;;3.80;1.40;;;24.80;99.90;;;;;;5075408;28;20029;-67
2023/07/07 08:52:57;;;;;;;3.10;1.52;;;24.90;99.90;;;;;;5095659;28;20032;-67
2023/07/07 08:55:35;;;;;;;7.72;1.55;;;25.00;99.90;;;;;;5081106;28;20024;-67
2023/07/07 08:58:16;;;;;;;1.45;1.10;;;25.10;99.90;;;;;;5095712;28;20057;-67
2023/07/07 09:01:15;;;;;;;2.20;1.17;;;25.20;99.90;;;;;;5094855;28;20433;-68
2023/07/07 09:04:03;;;;;;;2.05;1.30;;;25.20;99.90;;;;;;5079925;28;20036;-67
2023/07/07 09:06:56;;;;;;;2.90;1.55;;;25.40;99.90;;;;;;5095616;28;20020;-67
2023/07/07 09:09:49;;;;;;;2.47;1.02;;;25.50;99.70;;;;;;5090865;28;20115;-67
2023/07/07 09:12:29;;;;;;;2.13;1.30;;;25.60;99.90;;;;;;5095344;28;20288;-67
2023/07/07 09:14:58;;;;;;;1.83;1.20;;;25.70;99.90;;;;;;5103042;28;20039;-67
2023/07/07 09:17:29;;;;;;;3.70;1.58;;;25.70;99.90;;;;;;5115320;28;20027;-82
2023/07/07 09:19:59;;;;;;;3.00;1.15;;;25.80;97.50;;;;;;5115002;28;20020;-67
2023/07/07 09:22:39;;;;;;;5.28;1.70;;;25.80;98.60;;;;;;5112215;28;20055;-67
2023/07/07 09:25:30;;;;;;;1.45;1.15;;;25.90;99.80;;;;;;5106472;28;20383;-67
2023/07/07 09:28:00;;;;;;;1.23;1.05;;;26.00;97.30;;;;;;5104614;28;20130;-66
2023/07/07 09:30:34;;;;;;;1.85;1.40;;;26.00;98.00;;;;;;5114877;28;20055;-66
2023/07/07 09:33:00;;;;;;;3.67;1.35;;;26.00;96.80;;;;;;5114315;28;20107;-90
2023/07/07 09:35:31;;;;;;;2.42;1.10;;;25.90;95.90;;;;;;5101803;28;20031;-65
2023/07/07 09:38:14;;;;;;;6.28;1.80;;;25.90;96.80;;;;;;5115541;28;20019;-65
2023/07/07 09:41:13;;;;;;;4.55;1.05;;;25.90;95.90;;;;;;5095383;28;20024;-66
2023/07/07 09:43:59;;;;;;;3.78;1.35;;;25.80;95.70;;;;;;5097243;28;20028;-65
2023/07/07 09:46:39;;;;;;;;;;;25.80;95.90;;;;;;5115911;28;20027;-67
2023/07/07 09:49:17;;;;;;;2.20;1.20;;;25.90;96.10;;;;;;5101943;28;19911;-66
2023/07/07 09:51:54;;;;;;;1.50;1.10;;;26.00;96.40;;;;;;5114382;28;20023;-65
2023/07/07 09:54:22;;;;;;;2.17;1.33;;;26.00;96.00;;;;;;5106889;28;20027;-66
2023/07/07 09:57:01;;;;;;;1.80;1.05;;;26.00;95.10;;;;;;5094222;28;20042;-68
2023/07/07 09:59:35;;;;;;;4.05;1.40;;;26.10;95.20;;;;;;5110414;28;20019;-86
2023/07/07 10:02:08;;;;;;;3.20;1.08;;;26.20;96.80;;;;;;5114471;28;20024;-66
2023/07/07 10:04:34;;;;;;;2.97;1.38;;;26.20;95.00;;;;;;5115215;28;20089;-67
2023/07/07 10:07:06;;;;;;;1.95;1.38;;;26.20;94.90;;;;;;5115218;28;20034;-66
2023/07/07 10:09:31;;;;;;;3.78;1.20;;;26.20;96.20;;;;;;5114969;28;20309;-66
2023/07/07 10:11:58;;;;;;;3.43;1.40;;;26.20;94.70;;;;;;5108766;28;20281;-67
2023/07/07 10:14:27;;;;;;;4.07;1.20;;;26.20;95.90;;;;;;5114436;28;20284;-66
2023/07/07 10:17:08;;;;;;;2.20;1.30;;;26.20;97.50;;;;;;5093417;28;20030;-68
2023/07/07 10:19:41;;;;;;;4.43;1.75;;;26.20;95.10;;;;;;5095606;28;20032;-66
2023/07/07 10:22:09;;;;;;;2.38;1.27;;;26.30;94.60;;;;;;5114886;28;20468;-66
2023/07/07 10:24:35;;;;;;;2.53;1.20;;;26.40;95.10;;;;;;5105279;28;20592;-82
2023/07/07 10:27:01;;;;;;;2.58;1.42;;;26.50;94.50;;;;;;5105631;28;20036;-66
2023/07/07 10:29:33;;;;;;;2.53;1.17;;;26.60;93.80;;;;;;5106149;28;20083;-66
2023/07/07 10:31:59;;;;;;;2.25;1.17;;;26.50;94.00;;;;;;5101068;28;20276;-71
2023/07/07 10:34:37;;;;;;;2.72;1.30;;;26.50;94.30;;;;;;5114740;28;20030;-66
2023/07/07 10:37:25;;;;;;;3.95;1.33;;;26.50;94.50;;;;;;5094387;28;20079;-67
2023/07/07 10:40:01;;;;;;;2.08;1.23;;;26.10;95.80;;;;;;5108320;28;20020;-66
2023/07/07 10:42:28;;;;;;;;;;;25.70;95.90;;;;;;5104183;28;20369;-66
2023/07/07 10:44:56;;;;;;;2.25;1.20;;;26.00;95.20;;;;;;5107315;28;20198;-74
2023/07/07 10:47:31;;;;;;;4.32;1.52;;;26.20;94.90;;;;;;5100791;28;20020;-66
2023/07/07 10:49:58;;;;;;;2.13;1.27;;;26.30;94.60;;;;;;5098895;28;20024;-67
2023/07/07 10:52:49;;;;;;;3.20;1.27;;;26.40;95.10;;;;;;5113986;28;20019;-67
2023/07/07 10:55:21;;;;;;;3.13;1.52;;;26.50;94.20;;;;;;5104752;28;20025;-66
2023/07/07 10:57:50;;;;;;;2.75;1.23;;;26.70;95.40;;;;;;5105194;28;20322;-66
2023/07/07 11:00:33;;;;;;;3.17;1.40;;;26.80;93.50;;;;;;5108020;28;20051;-66
2023/07/07 11:03:20;;;;;;;3.83;1.50;;;26.90;94.00;;;;;;5115890;28;20023;-67
2023/07/07 11:05:58;;;;;;;1.90;1.20;;;27.00;93.60;;;;;;5114119;28;20317;-65
2023/07/07 11:08:35;;;;;;;2.03;1.30;;;27.00;93.20;;;;;;5117855;28;20020;-67
2023/07/07 11:11:10;;;;;;;3.22;1.35;;;26.80;94.10;;;;;;5116751;28;20174;-66
2023/07/07 11:13:58;;;;;;;2.85;1.35;;;26.70;93.50;;;;;;5117580;28;20023;-86
2023/07/07 11:16:57;;;;;;;2.53;1.38;;;26.70;94.50;;;;;;5102766;28;20083;-66
2023/07/07 11:19:45;;;;;;;1.75;1.20;;;26.70;93.20;;;;;;5117130;28;20023;-65
2023/07/07 11:22:29;;;;;;;4.65;1.70;;;26.90;93.60;;;;;;5117017;28;20035;-66
2023/07/07 11:24:58;;;;;;;2.38;1.48;;;27.00;92.90;;;;;;5098413;28;20099;-66
2023/07/07 11:27:33;;;;;;;4.32;1.45;;;27.10;92.50;;;;;;5107602;28;20019;-66
2023/07/07 11:30:08;;;;;;;3.15;1.50;;;26.70;92.40;;;;;;5102401;28;20437;-66
2023/07/07 11:32:57;;;;;;;2.10;1.30;;;26.50;95.20;;;;;;5106162;28;20016;-67
2023/07/07 11:35:51;;;;;;;2.15;1.45;;;26.60;95.70;;;;;;5109566;28;20066;-66
2023/07/07 11:38:35;;;;;;;4.90;1.50;;;26.30;93.60;;;;;;5100341;28;20028;-66
2023/07/07 11:41:23;;;;;;;3.33;1.08;;;26.50;93.00;;;;;;5107658;28;20030;-66
2023/07/07 11:44:13;;;;;;;2.03;1.70;;;26.80;94.10;;;;;;5102267;28;20098;-66
2023/07/07 11:47:06;;;;;;;1.92;1.50;;;27.10;94.70;;;;;;5106731;28;20031;-65
2023/07/07 11:49:57;;;;;;;3.60;1.30;;;26.80;93.50;;;;;;5116863;28;20031;-66
2023/07/07 11:52:34;;;;;;;3.03;1.20;;;27.10;93.00;;;;;;5101290;28;20107;-66
2023/07/07 11:55:31;;;;;;;2.45;1.40;;;27.30;92.80;;;;;;5102625;28;20124;-66
2023/07/07 11:58:11;;;;;;;5.88;1.42;;;27.30;92.80;;;;;;5106345;28;20149;-66
2023/07/07 12:00:40;;;;;;;2.33;1.45;;;27.60;91.20;;;;;;5094267;28;20019;-84
2023/07/07 12:03:30;;;;;;;5.35;1.77;;;27.70;92.00;;;;;;5111397;28;20024;-66
2023/07/07 12:06:01;;;;;;;1.42;1.13;;;27.90;93.40;;;;;;5110554;28;20043;-76
2023/07/07 12:08:56;;;;;;;2.20;1.33;;;27.70;93.30;;;;;;5096914;28;20023;-66
2023/07/07 12:11:23;;;;;;;2.80;1.48;;;27.90;91.70;;;;;;5092856;28;20476;-67
2023/07/07 12:14:05;;;;;;;2.22;1.30;;;27.50;92.20;;;;;;5112612;28;20418;-66
2023/07/07 12:16:31;;;;;;;1.98;1.50;;;27.60;91.20;;;;;;5115089;28;20513;-66
2023/07/07 12:19:07;;;;;;;;;;;27.80;90.90;;;;;;5106440;28;20028;-66
2023/07/07 12:21:35;;;;;;;3.03;1.50;;;27.90;90.70;;;;;;5110254;28;19950;-67
2023/07/07 12:24:39;;;;;;;2.03;1.52;;;28.00;91.00;;;;;;5096700;28;20115;-67
2023/07/07 12:27:12;;;;;;;4.85;1.50;;;27.70;91.60;;;;;;5104030;28;20024;-66
2023/07/07 12:29:41;;;;;;;2.42;1.38;;;27.80;91.60;;;;;;5115007;28;20360;-67
2023/07/07 12:32:07;;;;;;;2.63;1.67;;;27.80;92.50;;;;;;5096090;28;20031;-67
2023/07/07 12:34:36;;;;;;;2.80;1.70;;;27.60;92.60;;;;;;5096752;28;20017;-67
2023/07/07 12:37:10;;;;;;;2.33;1.42;;;27.30;92.50;;;;;;5115977;28;20051;-65
2023/07/07 12:39:35;;;;;;;2.38;1.52;;;27.50;91.10;;;;;;5116544;28;20102;-66
2023/07/07 12:42:04;;;;;;;2.40;1.30;;;27.60;89.20;;;;;;5114685;28;20115;-67
2023/07/07 12:44:31;;;;;;;2.97;1.30;;;27.70;92.20;;;;;;5116514;28;20406;-67
2023/07/07 12:46:58;;;;;;;3.22;1.83;;;27.50;91.80;;;;;;5115247;28;20026;-66
2023/07/07 12:49:26;;;;;;;3.85;1.70;;;27.40;91.40;;;;;;5107042;28;20032;-66
2023/07/07 12:52:00;;;;;;;2.47;1.35;;;27.60;90.90;;;;;;5111665;28;20099;-94
2023/07/07 12:54:31;;;;;;;4.60;1.85;;;27.70;91.60;;;;;;5116460;28;20024;-66
2023/07/07 12:57:00;;;;;;;3.08;1.63;;;27.70;91.20;;;;;;5114840;28;20024;-66
2023/07/07 12:59:40;;;;;;;2.38;1.38;;;27.80;90.20;;;;;;5116308;28;20027;-89
2023/07/07 13:02:22;;;;;;;3.22;1.75;;;28.00;90.60;;;;;;5115420;28;20027;-87
2023/07/07 13:04:57;;;;;;;2.08;1.30;;;28.10;90.50;;;;;;5115882;28;20034;-90
2023/07/07 13:07:33;;;;;;;2.88;1.38;;;28.20;90.20;;;;;;5100896;28;20058;-67